Terminal Aerodrome Forecast
Issued by NWS Cleveland, OH

Home | Current Version | Previous Version | Text Only | Print | Product List | Glossary Off
Versions: 1 2 3 4 5 6 7 8 9 10 11 12 13 14 15 16 17 18 19 20 21 22 23 24 25 26 27 28 29

558
FTUS41 KCLE 101138
TAFCLE
TAF
KCLE 101138Z 1012/1118 26015KT 6SM -SHSN SCT018 OVC035
      TEMPO 1012/1014 3SM -SHSN OVC018
     FM101400 26015G22KT 4SM -SHSN OVC018
      TEMPO 1014/1018 1SM -SHSN BR OVC012
     FM101800 27015G25KT 2SM -SN OVC018
     FM102200 28015G25KT 3SM -SHSN OVC025
     FM110500 29012KT 6SM -SHSN OVC030
     FM111500 29012KT P6SM BKN035=

USA.gov is the U.S. government's official web portal to all federal, state and local government web resources and services.